Time;durP1;ratioP1;P1;durP2;ratioP2;P2;SDS_P1;SDS_P2;PMS_P1;PMS_P2;Temp;Humidity;BMP_temperature;BMP_pressure;BME280_temperature;BME280_humidity;BME280_pressure;Samples;Min_cycle;Max_cycle;Signal;HPM_P1;HPM_P2
2021/05/09 00:00:38;;;;;;;3.35;2.08;;;12.20;59.30;;;;;;4947092;29;20255;-66
2021/05/09 00:03:04;;;;;;;3.88;2.10;;;12.10;59.50;;;;;;4948719;29;20023;-66
2021/05/09 00:05:29;;;;;;;3.05;1.75;;;12.20;59.00;;;;;;4947587;29;20082;-66
2021/05/09 00:07:55;;;;;;;3.92;1.80;;;12.20;58.70;;;;;;4930278;29;20234;-66
2021/05/09 00:10:20;;;;;;;3.20;1.73;;;12.10;58.80;;;;;;4946918;29;20222;-66
2021/05/09 00:12:46;;;;;;;3.10;1.90;;;12.20;59.00;;;;;;4946745;29;20062;-66
2021/05/09 00:15:12;;;;;;;3.60;1.92;;;12.20;59.20;;;;;;4946809;29;20227;-67
2021/05/09 00:17:39;;;;;;;4.22;1.70;;;12.20;59.20;;;;;;4948718;29;20039;-67
2021/05/09 00:20:05;;;;;;;3.22;1.70;;;12.30;59.10;;;;;;4947119;29;20043;-67
2021/05/09 00:22:31;;;;;;;3.35;1.58;;;12.30;59.20;;;;;;4946852;29;20046;-67
2021/05/09 00:24:56;;;;;;;2.90;1.85;;;12.30;59.60;;;;;;4929704;29;20040;-68
2021/05/09 00:27:22;;;;;;;3.47;1.83;;;12.20;60.20;;;;;;4947300;29;20136;-67
2021/05/09 00:29:47;;;;;;;2.42;1.70;;;12.20;60.10;;;;;;4948498;29;20350;-67
2021/05/09 00:32:13;;;;;;;3.30;1.70;;;12.10;60.30;;;;;;4914354;29;20043;-67
2021/05/09 00:34:38;;;;;;;2.45;1.60;;;12.10;60.20;;;;;;4946681;29;20035;-67
2021/05/09 00:37:04;;;;;;;3.95;1.70;;;12.00;60.70;;;;;;4929664;29;20035;-66
2021/05/09 00:39:29;;;;;;;4.68;1.70;;;12.10;60.70;;;;;;4946929;29;20039;-67
2021/05/09 00:42:05;;;;;;;3.53;2.00;;;12.00;60.80;;;;;;4948256;29;20134;-66
2021/05/09 00:44:31;;;;;;;2.63;1.60;;;12.00;60.60;;;;;;4946483;29;20398;-66
2021/05/09 00:46:56;;;;;;;3.72;1.55;;;11.90;60.60;;;;;;4946213;29;20036;-66
2021/05/09 00:49:22;;;;;;;4.15;1.70;;;12.00;60.30;;;;;;4946460;29;20063;-66
2021/05/09 00:51:48;;;;;;;2.45;1.50;;;11.90;60.40;;;;;;4946556;29;20039;-66
2021/05/09 00:54:18;;;;;;;3.65;2.03;;;12.00;60.30;;;;;;4945997;29;20259;-67
2021/05/09 00:56:44;;;;;;;4.18;1.58;;;12.00;60.20;;;;;;4930801;29;20036;-66
2021/05/09 00:59:10;;;;;;;2.08;1.48;;;11.90;60.20;;;;;;4946101;29;20065;-67
2021/05/09 01:01:36;;;;;;;3.05;1.50;;;11.90;60.30;;;;;;4928994;29;20099;-66
2021/05/09 01:04:01;;;;;;;2.65;1.48;;;11.90;60.30;;;;;;4946091;29;20042;-66
2021/05/09 01:06:27;;;;;;;3.30;1.60;;;11.90;60.70;;;;;;4928965;29;20032;-67
2021/05/09 01:08:53;;;;;;;2.05;1.50;;;11.90;60.60;;;;;;4947464;29;20020;-66
2021/05/09 01:11:18;;;;;;;2.53;1.58;;;11.90;60.60;;;;;;4946087;29;20122;-67
2021/05/09 01:13:45;;;;;;;3.03;1.70;;;11.90;60.70;;;;;;4946219;29;20031;-67
2021/05/09 01:16:10;;;;;;;3.42;1.50;;;11.90;60.90;;;;;;4929098;29;20035;-66
2021/05/09 01:18:36;;;;;;;3.80;1.65;;;11.90;60.40;;;;;;4928858;29;20031;-66
2021/05/09 01:21:01;;;;;;;2.85;1.23;;;11.90;60.40;;;;;;4947260;29;20035;-67
2021/05/09 01:23:27;;;;;;;2.42;1.42;;;11.80;61.00;;;;;;4946426;29;20051;-67
2021/05/09 01:25:52;;;;;;;2.00;1.30;;;11.80;60.80;;;;;;4945825;29;20212;-66
2021/05/09 01:28:18;;;;;;;2.17;1.40;;;11.80;60.40;;;;;;4945292;29;20036;-66
2021/05/09 01:30:43;;;;;;;2.10;1.33;;;11.80;60.20;;;;;;4945588;29;20260;-66
2021/05/09 01:33:09;;;;;;;3.35;1.40;;;11.80;59.90;;;;;;4914347;29;20196;-67
2021/05/09 01:35:34;;;;;;;1.95;1.25;;;11.80;59.60;;;;;;4945427;29;20335;-67
2021/05/09 01:38:00;;;;;;;2.70;1.13;;;11.80;59.30;;;;;;4945552;29;20035;-66
2021/05/09 01:40:26;;;;;;;2.30;1.30;;;11.80;59.70;;;;;;4945247;29;20055;-67
2021/05/09 01:42:51;;;;;;;3.38;1.52;;;11.70;60.20;;;;;;4945597;29;20036;-67
2021/05/09 01:45:17;;;;;;;2.08;1.27;;;11.70;60.00;;;;;;4945502;29;20020;-67
2021/05/09 01:47:42;;;;;;;1.90;1.30;;;11.70;59.50;;;;;;4947104;29;20062;-66
2021/05/09 01:50:11;;;;;;;2.45;1.30;;;11.60;59.50;;;;;;4945652;29;20032;-66
2021/05/09 01:52:37;;;;;;;2.97;1.30;;;11.60;59.90;;;;;;4945069;29;20338;-66
2021/05/09 01:55:07;;;;;;;2.88;1.50;;;11.60;60.30;;;;;;4928198;29;20055;-66
2021/05/09 01:57:33;;;;;;;1.65;1.10;;;11.60;60.20;;;;;;4945071;29;20048;-67
2021/05/09 01:59:58;;;;;;;1.70;1.27;;;11.50;60.20;;;;;;4946678;29;20107;-67
2021/05/09 02:02:24;;;;;;;2.67;1.10;;;11.50;60.50;;;;;;4945588;29;20107;-67
2021/05/09 02:04:51;;;;;;;1.98;1.13;;;11.60;60.00;;;;;;4945438;29;20036;-66
2021/05/09 02:07:17;;;;;;;1.63;1.17;;;11.50;60.50;;;;;;4944966;29;20035;-66
2021/05/09 02:09:43;;;;;;;1.70;1.05;;;11.60;60.70;;;;;;4944804;29;20036;-66
2021/05/09 02:12:09;;;;;;;2.15;1.25;;;11.50;61.10;;;;;;4946477;29;20032;-67
2021/05/09 02:14:34;;;;;;;2.53;1.20;;;11.40;61.50;;;;;;4944808;29;20140;-66
2021/05/09 02:17:00;;;;;;;1.75;1.20;;;11.40;61.70;;;;;;4945225;29;20091;-66
2021/05/09 02:19:25;;;;;;;2.65;1.40;;;11.30;61.60;;;;;;4944923;29;20365;-67
2021/05/09 02:21:51;;;;;;;2.25;1.42;;;11.40;60.80;;;;;;4944981;29;20031;-67
2021/05/09 02:24:16;;;;;;;2.83;1.33;;;11.40;60.90;;;;;;4945040;29;20028;-67
2021/05/09 02:26:42;;;;;;;4.13;1.17;;;11.40;61.30;;;;;;4946735;29;20032;-67
2021/05/09 02:29:07;;;;;;;2.75;1.30;;;11.30;61.00;;;;;;4945025;29;20043;-67
2021/05/09 02:31:33;;;;;;;3.55;1.10;;;11.30;61.00;;;;;;4944882;29;20044;-66
2021/05/09 02:33:58;;;;;;;1.85;1.33;;;11.40;61.30;;;;;;4944979;29;20034;-66
2021/05/09 02:36:24;;;;;;;2.35;1.30;;;11.30;61.80;;;;;;4944743;29;20082;-66
2021/05/09 02:38:49;;;;;;;4.35;1.10;;;11.40;62.00;;;;;;4946872;29;20024;-66
2021/05/09 02:41:15;;;;;;;2.80;1.30;;;11.30;62.00;;;;;;4948857;29;20228;-66
2021/05/09 02:43:40;;;;;;;2.38;1.25;;;11.30;62.00;;;;;;4948489;29;20046;-66
2021/05/09 02:46:06;;;;;;;2.53;1.40;;;11.20;62.10;;;;;;4948458;29;20070;-66
2021/05/09 02:48:31;;;;;;;2.22;1.17;;;11.20;62.40;;;;;;4948682;29;20047;-66
2021/05/09 02:50:57;;;;;;;4.95;1.42;;;11.10;62.30;;;;;;4949990;29;20095;-65
2021/05/09 02:53:22;;;;;;;1.83;1.10;;;11.10;62.70;;;;;;4948764;29;20087;-66
2021/05/09 02:55:48;;;;;;;2.17;1.20;;;11.00;62.50;;;;;;4931423;29;20036;-66
2021/05/09 02:58:13;;;;;;;3.38;1.38;;;11.10;62.20;;;;;;4948289;29;20047;-65
2021/05/09 03:00:39;;;;;;;3.22;1.00;;;11.10;61.90;;;;;;4948119;29;20043;-65
2021/05/09 03:03:04;;;;;;;1.73;1.13;;;11.10;62.10;;;;;;4950074;29;20035;-64
2021/05/09 03:05:30;;;;;;;2.90;1.20;;;11.00;62.30;;;;;;4948854;29;20040;-65
2021/05/09 03:07:55;;;;;;;1.63;1.13;;;11.00;62.40;;;;;;4948499;29;20039;-65
2021/05/09 03:10:21;;;;;;;4.38;1.17;;;11.00;62.70;;;;;;4947907;29;20331;-66
2021/05/09 03:12:46;;;;;;;4.00;1.20;;;11.00;62.70;;;;;;4948091;29;20091;-66
2021/05/09 03:15:12;;;;;;;5.80;1.17;;;10.90;62.90;;;;;;4947897;29;20042;-66
2021/05/09 03:17:38;;;;;;;4.32;1.20;;;10.90;62.50;;;;;;4949786;29;20036;-66
2021/05/09 03:20:04;;;;;;;2.40;1.30;;;10.90;62.60;;;;;;4948257;29;20103;-66
2021/05/09 03:22:29;;;;;;;1.60;1.17;;;11.00;62.40;;;;;;4947901;29;20047;-66
2021/05/09 03:24:55;;;;;;;1.40;1.10;;;11.00;62.00;;;;;;4948080;29;20102;-66
2021/05/09 03:27:20;;;;;;;1.55;1.10;;;11.00;61.80;;;;;;4947577;29;20036;-66
2021/05/09 03:29:46;;;;;;;2.67;1.30;;;11.00;61.80;;;;;;4932953;29;20043;-66
2021/05/09 03:32:11;;;;;;;3.15;1.10;;;11.00;61.60;;;;;;4947766;29;20204;-66
2021/05/09 03:34:37;;;;;;;2.67;1.10;;;11.00;61.60;;;;;;4947853;29;20032;-66
2021/05/09 03:37:02;;;;;;;2.53;1.15;;;10.90;62.30;;;;;;4947496;29;20038;-66
2021/05/09 03:39:28;;;;;;;2.95;1.23;;;10.90;61.80;;;;;;4947996;29;20036;-66
2021/05/09 03:41:53;;;;;;;1.80;1.10;;;11.00;61.50;;;;;;4949416;29;20192;-66
2021/05/09 03:44:19;;;;;;;1.48;1.00;;;10.90;61.80;;;;;;4947925;29;20036;-66
2021/05/09 03:46:44;;;;;;;3.58;1.00;;;10.90;61.80;;;;;;4947662;29;20043;-66
2021/05/09 03:49:10;;;;;;;3.28;1.20;;;11.00;61.30;;;;;;4947365;29;20051;-66
2021/05/09 03:51:37;;;;;;;1.85;1.10;;;11.10;61.20;;;;;;4947228;29;20055;-66
2021/05/09 03:54:03;;;;;;;3.58;1.15;;;11.10;61.20;;;;;;4949178;29;20083;-66
2021/05/09 03:56:28;;;;;;;2.08;1.10;;;11.00;61.50;;;;;;4947646;29;20040;-66
2021/05/09 03:58:54;;;;;;;2.63;1.20;;;11.00;62.10;;;;;;4914480;29;20227;-66
2021/05/09 04:01:20;;;;;;;4.20;1.00;;;11.00;62.40;;;;;;4947087;29;20036;-66
2021/05/09 04:03:45;;;;;;;2.30;1.10;;;10.90;62.90;;;;;;4947109;29;20071;-66
2021/05/09 04:06:11;;;;;;;2.38;1.17;;;10.90;62.70;;;;;;4947273;29;20032;-66
2021/05/09 04:08:36;;;;;;;1.42;0.85;;;11.00;62.60;;;;;;4948624;29;20031;-66
2021/05/09 04:11:02;;;;;;;1.30;0.77;;;11.00;62.70;;;;;;4946846;29;20126;-66
2021/05/09 04:13:28;;;;;;;2.33;1.00;;;11.00;62.90;;;;;;4947118;29;20084;-66
2021/05/09 04:15:53;;;;;;;1.92;1.10;;;11.00;62.60;;;;;;4946988;29;20278;-66
2021/05/09 04:18:19;;;;;;;1.90;1.33;;;11.00;62.30;;;;;;4929859;29;20231;-65
2021/05/09 04:20:45;;;;;;;1.65;1.05;;;11.10;61.70;;;;;;4948698;29;20250;-65
2021/05/09 04:23:12;;;;;;;1.50;1.00;;;11.10;61.70;;;;;;4947189;29;20103;-66
2021/05/09 04:25:37;;;;;;;1.42;0.88;;;11.10;61.80;;;;;;4946557;29;20036;-66
2021/05/09 04:28:03;;;;;;;1.25;0.90;;;11.10;61.90;;;;;;4946576;29;20354;-66
2021/05/09 04:30:29;;;;;;;1.35;0.88;;;11.10;61.80;;;;;;4946550;29;20083;-65
2021/05/09 04:33:02;;;;;;;1.52;0.88;;;11.20;62.10;;;;;;4948344;29;20091;-65
2021/05/09 04:35:27;;;;;;;1.75;0.95;;;11.20;62.40;;;;;;4946988;29;20043;-65
2021/05/09 04:37:53;;;;;;;1.25;0.80;;;11.20;62.10;;;;;;4946400;29;20063;-65
2021/05/09 04:40:19;;;;;;;2.55;0.95;;;11.30;61.50;;;;;;4946331;29;20086;-65
2021/05/09 04:42:44;;;;;;;1.00;0.70;;;11.30;61.50;;;;;;4946317;29;20065;-65
2021/05/09 04:45:10;;;;;;;2.63;0.77;;;11.30;61.10;;;;;;4947968;29;20043;-66
2021/05/09 04:47:36;;;;;;;1.17;0.85;;;11.30;60.70;;;;;;4947099;29;20048;-66
2021/05/09 04:50:02;;;;;;;2.03;0.80;;;11.30;60.90;;;;;;4946610;29;20031;-66
2021/05/09 04:52:28;;;;;;;1.23;0.77;;;11.40;60.00;;;;;;4946041;29;20059;-65
2021/05/09 04:54:53;;;;;;;1.58;1.00;;;11.40;59.70;;;;;;4946109;29;20039;-66
2021/05/09 04:57:19;;;;;;;2.33;0.80;;;11.50;59.60;;;;;;4946048;29;20079;-66
2021/05/09 04:59:44;;;;;;;1.02;0.65;;;11.50;58.80;;;;;;4947534;29;20114;-66
2021/05/09 05:02:10;;;;;;;1.13;0.80;;;11.60;58.40;;;;;;4945455;29;20039;-66
2021/05/09 05:04:35;;;;;;;1.42;0.70;;;11.70;57.90;;;;;;4946402;29;20201;-66
2021/05/09 05:07:01;;;;;;;2.13;0.80;;;11.80;57.40;;;;;;4946398;29;20043;-66
2021/05/09 05:09:26;;;;;;;1.58;0.70;;;11.80;57.50;;;;;;4945793;29;20224;-66
2021/05/09 05:11:53;;;;;;;4.78;0.60;;;11.80;56.50;;;;;;4947528;29;20042;-66
2021/05/09 05:14:19;;;;;;;0.95;0.75;;;11.90;56.30;;;;;;4945843;29;20046;-65
2021/05/09 05:16:44;;;;;;;2.25;0.73;;;11.90;56.40;;;;;;4946027;29;20039;-67
2021/05/09 05:19:09;;;;;;;1.10;0.70;;;11.90;55.70;;;;;;4946126;29;20231;-66
2021/05/09 05:21:35;;;;;;;2.22;0.80;;;12.00;55.60;;;;;;4945689;29;20027;-65
2021/05/09 05:24:00;;;;;;;1.10;0.70;;;12.10;55.30;;;;;;4947267;29;20087;-66
2021/05/09 05:26:26;;;;;;;1.48;0.80;;;12.20;55.20;;;;;;4946001;29;20119;-65
2021/05/09 05:28:51;;;;;;;3.10;0.70;;;12.30;55.30;;;;;;4945634;29;20031;-66
2021/05/09 05:31:17;;;;;;;2.47;0.60;;;12.40;55.30;;;;;;4928654;29;20335;-66
2021/05/09 05:33:43;;;;;;;1.35;0.70;;;12.40;55.30;;;;;;4945778;29;20091;-66
2021/05/09 05:36:09;;;;;;;3.28;0.70;;;12.50;54.10;;;;;;4947003;29;20032;-66
2021/05/09 05:38:34;;;;;;;2.58;0.60;;;12.60;54.90;;;;;;4945420;29;20046;-66
2021/05/09 05:41:00;;;;;;;1.02;0.70;;;12.70;54.20;;;;;;4945352;29;20043;-66
2021/05/09 05:43:30;;;;;;;6.65;0.75;;;12.80;54.20;;;;;;4945283;29;20035;-66
2021/05/09 05:45:59;;;;;;;1.83;0.60;;;12.80;54.30;;;;;;4945230;29;20035;-66
2021/05/09 05:48:24;;;;;;;1.67;0.68;;;12.90;54.00;;;;;;4945391;29;20046;-66
2021/05/09 05:50:50;;;;;;;2.25;0.57;;;13.00;54.00;;;;;;4947247;29;20090;-66
2021/05/09 05:53:17;;;;;;;2.13;0.85;;;13.10;53.60;;;;;;4945832;29;20074;-66
2021/05/09 05:55:43;;;;;;;1.52;0.70;;;13.20;53.90;;;;;;4945085;29;20035;-66
2021/05/09 05:58:09;;;;;;;2.25;0.80;;;13.30;53.60;;;;;;4945024;29;20086;-66
2021/05/09 06:00:34;;;;;;;1.10;0.60;;;13.30;53.40;;;;;;4944883;29;20043;-66
2021/05/09 06:03:00;;;;;;;2.08;0.80;;;13.40;53.60;;;;;;4946956;29;20040;-66
2021/05/09 06:05:25;;;;;;;0.98;0.70;;;13.50;53.70;;;;;;4945451;29;20248;-65
2021/05/09 06:07:51;;;;;;;2.97;0.75;;;13.60;53.60;;;;;;4945066;29;20043;-66
2021/05/09 06:10:16;;;;;;;1.50;0.70;;;13.70;54.00;;;;;;4945001;29;20035;-66
2021/05/09 06:12:42;;;;;;;1.27;0.65;;;13.80;54.20;;;;;;4944768;29;20043;-66
2021/05/09 06:15:08;;;;;;;2.05;0.60;;;13.90;53.70;;;;;;4946320;29;20027;-66
2021/05/09 06:17:33;;;;;;;1.38;0.80;;;14.00;54.10;;;;;;4944765;29;20151;-66
2021/05/09 06:19:59;;;;;;;1.40;0.85;;;14.10;54.10;;;;;;4945239;29;20039;-66
2021/05/09 06:22:24;;;;;;;1.48;0.90;;;14.20;53.30;;;;;;4928369;29;20039;-66
2021/05/09 06:24:50;;;;;;;1.23;0.60;;;14.30;52.20;;;;;;4927986;29;20231;-66
2021/05/09 06:27:15;;;;;;;0.98;0.57;;;14.40;51.60;;;;;;4944950;29;20311;-66
2021/05/09 06:29:42;;;;;;;2.10;0.88;;;14.50;51.00;;;;;;4946721;29;20215;-66
2021/05/09 06:32:07;;;;;;;1.13;0.70;;;14.60;51.90;;;;;;4944887;29;20208;-66
2021/05/09 06:34:33;;;;;;;3.00;0.65;;;14.70;51.40;;;;;;4944628;29;20047;-66
2021/05/09 06:36:58;;;;;;;1.38;0.70;;;14.90;51.20;;;;;;4944613;29;20038;-66
2021/05/09 06:39:29;;;;;;;1.80;0.52;;;15.10;49.50;;;;;;4944565;29;20062;-65
2021/05/09 06:41:57;;;;;;;3.07;0.90;;;15.20;50.60;;;;;;4946403;29;20035;-66
2021/05/09 06:44:26;;;;;;;2.47;0.77;;;15.30;51.30;;;;;;4944957;29;20453;-66
2021/05/09 06:46:51;;;;;;;2.78;0.70;;;15.40;51.70;;;;;;4944357;29;20051;-66
2021/05/09 06:49:17;;;;;;;1.85;0.60;;;15.50;51.00;;;;;;4944599;29;20079;-65
2021/05/09 06:51:42;;;;;;;3.22;0.68;;;15.60;50.30;;;;;;4944559;29;20062;-66
2021/05/09 06:54:08;;;;;;;0.90;0.60;;;15.70;49.10;;;;;;4946470;29;20039;-66
2021/05/09 06:56:34;;;;;;;2.92;0.80;;;15.90;48.00;;;;;;4944334;29;20031;-67
2021/05/09 06:58:59;;;;;;;3.55;1.30;;;16.00;49.40;;;;;;4944624;29;20076;-66
2021/05/09 07:01:25;;;;;;;0.68;0.55;;;16.20;49.00;;;;;;4944601;29;20368;-66
2021/05/09 07:03:51;;;;;;;1.45;0.70;;;16.20;49.80;;;;;;4944519;29;20382;-66
2021/05/09 07:06:16;;;;;;;2.10;0.68;;;16.40;48.90;;;;;;4943901;29;20083;-67
2021/05/09 07:08:42;;;;;;;3.85;0.73;;;16.60;50.40;;;;;;4946011;29;20114;-66
2021/05/09 07:11:08;;;;;;;1.38;0.73;;;16.60;51.20;;;;;;4944189;29;20199;-66
2021/05/09 07:13:33;;;;;;;1.17;0.70;;;16.80;50.80;;;;;;4944023;29;20036;-66
2021/05/09 07:15:59;;;;;;;1.95;0.60;;;16.90;50.50;;;;;;4944503;29;20058;-66
2021/05/09 07:18:26;;;;;;;1.63;0.70;;;17.10;48.60;;;;;;4944392;29;20023;-66
2021/05/09 07:20:56;;;;;;;1.13;0.65;;;17.30;48.80;;;;;;4946243;29;20024;-66
2021/05/09 07:23:22;;;;;;;1.08;0.65;;;17.50;48.40;;;;;;4928405;29;20040;-66
2021/05/09 07:25:47;;;;;;;1.33;0.63;;;17.60;48.60;;;;;;4945673;29;20204;-67
2021/05/09 07:28:14;;;;;;;3.08;0.70;;;17.70;49.50;;;;;;4947944;29;20028;-66
2021/05/09 07:30:40;;;;;;;2.47;0.70;;;17.90;50.40;;;;;;4947656;29;20039;-66
2021/05/09 07:33:07;;;;;;;1.58;0.70;;;18.00;49.60;;;;;;4949794;29;20055;-66
2021/05/09 07:35:33;;;;;;;0.98;0.60;;;18.20;49.30;;;;;;4947560;29;20047;-66
2021/05/09 07:38:05;;;;;;;4.93;0.70;;;18.30;49.20;;;;;;4947738;29;20282;-66
2021/05/09 07:40:30;;;;;;;1.17;0.70;;;18.50;49.20;;;;;;4947400;29;20040;-66
2021/05/09 07:42:56;;;;;;;1.02;0.70;;;18.70;49.70;;;;;;4930711;29;20024;-72
2021/05/09 07:45:23;;;;;;;1.55;0.70;;;18.80;49.20;;;;;;4930548;29;20039;-66
2021/05/09 07:47:49;;;;;;;4.60;0.80;;;19.00;48.10;;;;;;4949179;29;20083;-66
2021/05/09 07:50:15;;;;;;;3.38;0.80;;;19.30;46.20;;;;;;4947691;29;20196;-66
2021/05/09 07:52:43;;;;;;;1.77;0.73;;;19.40;47.10;;;;;;4947392;29;20047;-66
2021/05/09 07:55:09;;;;;;;1.17;0.60;;;19.70;47.90;;;;;;4930330;29;20039;-66
2021/05/09 07:57:34;;;;;;;1.95;0.70;;;19.80;46.80;;;;;;4947389;29;20059;-66
2021/05/09 08:00:00;;;;;;;1.20;0.68;;;20.00;47.00;;;;;;4948738;29;20418;-66
2021/05/09 08:02:25;;;;;;;1.67;0.70;;;20.10;46.90;;;;;;4947513;29;20036;-65
2021/05/09 08:04:51;;;;;;;5.88;1.15;;;20.30;47.10;;;;;;4947326;29;20051;-65
2021/05/09 08:07:16;;;;;;;1.55;0.57;;;20.40;47.40;;;;;;4947050;29;20219;-65
2021/05/09 08:09:42;;;;;;;1.60;0.70;;;20.40;46.40;;;;;;4946840;29;20031;-65
2021/05/09 08:12:08;;;;;;;1.38;0.70;;;20.60;45.50;;;;;;4948504;29;20087;-65
2021/05/09 08:14:33;;;;;;;1.67;0.80;;;20.60;44.60;;;;;;4946747;29;20079;-65
2021/05/09 08:16:59;;;;;;;2.80;0.80;;;20.70;46.10;;;;;;4947169;29;20107;-64
2021/05/09 08:19:25;;;;;;;3.42;0.90;;;20.90;45.90;;;;;;4946800;29;20036;-62
2021/05/09 08:21:50;;;;;;;2.13;0.70;;;21.00;46.00;;;;;;4946676;29;20039;-63
2021/05/09 08:24:17;;;;;;;2.30;0.73;;;21.20;45.80;;;;;;4946874;29;20116;-63
2021/05/09 08:26:43;;;;;;;2.20;0.80;;;21.30;45.60;;;;;;4948302;29;20223;-63
2021/05/09 08:29:08;;;;;;;1.95;0.60;;;21.40;44.20;;;;;;4946870;29;20197;-63
2021/05/09 08:31:35;;;;;;;2.65;0.98;;;21.60;44.50;;;;;;4946531;29;20054;-64
2021/05/09 08:34:01;;;;;;;1.95;0.65;;;21.80;43.90;;;;;;4946509;29;20108;-63
2021/05/09 08:36:26;;;;;;;2.85;0.82;;;22.00;43.40;;;;;;4945819;29;20039;-63
2021/05/09 08:38:52;;;;;;;2.28;0.70;;;22.30;42.00;;;;;;4947832;29;20043;-64
2021/05/09 08:41:17;;;;;;;0.98;0.60;;;22.40;42.10;;;;;;4946586;29;20091;-64
2021/05/09 08:43:43;;;;;;;1.67;0.80;;;22.60;42.60;;;;;;4946254;29;20099;-64
2021/05/09 08:46:10;;;;;;;1.88;0.70;;;22.80;41.40;;;;;;4946327;29;20032;-67
2021/05/09 08:48:36;;;;;;;1.27;0.70;;;23.00;40.20;;;;;;4929587;29;20039;-65
2021/05/09 08:51:05;;;;;;;0.98;0.65;;;23.20;38.60;;;;;;4948016;29;20203;-64
2021/05/09 08:53:30;;;;;;;1.83;0.80;;;23.30;37.30;;;;;;4946658;29;20047;-64
2021/05/09 08:55:56;;;;;;;3.42;0.70;;;23.40;36.90;;;;;;4946384;29;20035;-64
2021/05/09 08:58:22;;;;;;;4.43;0.73;;;23.50;36.30;;;;;;4946197;29;20040;-64
2021/05/09 09:00:47;;;;;;;1.58;0.75;;;23.60;36.20;;;;;;4945947;29;20075;-64
2021/05/09 09:03:13;;;;;;;0.93;0.63;;;23.80;37.10;;;;;;4946226;29;20274;-64
2021/05/09 09:05:44;;;;;;;5.15;0.80;;;23.90;37.00;;;;;;4947721;29;20036;-63
2021/05/09 09:08:10;;;;;;;3.70;0.90;;;24.00;36.40;;;;;;4946097;29;20132;-64
2021/05/09 09:10:44;;;;;;;4.00;0.85;;;24.20;37.10;;;;;;4945750;29;20134;-63
2021/05/09 09:13:22;;;;;;;1.27;0.68;;;24.30;36.70;;;;;;4945780;29;20063;-64
2021/05/09 09:15:55;;;;;;;1.40;0.80;;;24.40;35.60;;;;;;4945517;29;20043;-64
2021/05/09 09:18:24;;;;;;;1.40;0.60;;;24.60;35.40;;;;;;4945744;29;20036;-64
2021/05/09 09:20:49;;;;;;;2.53;0.93;;;24.70;33.30;;;;;;4947624;29;20218;-64
2021/05/09 09:23:15;;;;;;;2.13;0.82;;;24.80;32.80;;;;;;4946396;29;20043;-65
2021/05/09 09:25:41;;;;;;;0.90;0.50;;;24.90;32.50;;;;;;4945934;29;20043;-64
2021/05/09 09:28:10;;;;;;;2.50;0.75;;;25.00;32.30;;;;;;4945837;29;20318;-64
2021/05/09 09:30:53;;;;;;;2.17;0.70;;;25.10;33.60;;;;;;4945436;29;20039;-64
2021/05/09 09:33:19;;;;;;;1.55;0.75;;;25.30;33.50;;;;;;4945743;29;20034;-64
2021/05/09 09:35:45;;;;;;;1.80;0.70;;;25.30;32.40;;;;;;4946953;29;20047;-64
2021/05/09 09:38:29;;;;;;;3.35;0.70;;;25.50;30.60;;;;;;4945744;29;20055;-66
2021/05/09 09:41:12;;;;;;;2.83;0.60;;;25.50;31.90;;;;;;4945801;29;20039;-65
2021/05/09 09:43:42;;;;;;;1.23;0.80;;;25.70;33.10;;;;;;4945181;29;20047;-65
2021/05/09 09:46:27;;;;;;;3.63;0.75;;;25.70;30.70;;;;;;4944857;29;20060;-67
2021/05/09 09:48:53;;;;;;;1.10;0.80;;;25.80;30.00;;;;;;4928065;29;20040;-65
2021/05/09 09:51:21;;;;;;;3.50;0.80;;;25.80;30.00;;;;;;4944991;29;20032;-65
2021/05/09 09:53:47;;;;;;;3.38;0.90;;;25.90;29.20;;;;;;4930873;29;20059;-65
2021/05/09 09:56:25;;;;;;;2.25;0.65;;;26.00;29.10;;;;;;4945356;29;20201;-66
2021/05/09 09:59:05;;;;;;;0.65;0.50;;;26.10;29.40;;;;;;4944824;29;20035;-66
2021/05/09 10:01:31;;;;;;;1.00;0.57;;;26.20;28.10;;;;;;4945002;29;20047;-65
2021/05/09 10:03:57;;;;;;;2.75;0.70;;;26.30;27.00;;;;;;4944902;29;20066;-66
2021/05/09 10:06:24;;;;;;;1.10;0.68;;;26.30;28.30;;;;;;4945161;29;20215;-65
2021/05/09 10:08:51;;;;;;;1.10;0.63;;;26.40;28.70;;;;;;4946960;29;20039;-65
2021/05/09 10:11:17;;;;;;;2.13;0.80;;;26.50;29.00;;;;;;4928687;29;20274;-64
2021/05/09 10:13:42;;;;;;;1.55;0.55;;;26.50;27.80;;;;;;4944960;29;20040;-65
2021/05/09 10:16:08;;;;;;;2.85;0.70;;;26.60;28.70;;;;;;4944761;29;20056;-66
2021/05/09 10:18:34;;;;;;;2.83;0.80;;;26.70;28.30;;;;;;4944704;29;20039;-65
2021/05/09 10:21:00;;;;;;;1.58;0.70;;;26.70;28.10;;;;;;4929556;29;20175;-64
2021/05/09 10:23:26;;;;;;;3.97;0.80;;;26.80;28.40;;;;;;4945428;29;20043;-64
2021/05/09 10:25:52;;;;;;;9.43;3.90;;;26.90;27.10;;;;;;4945088;29;20039;-64
2021/05/09 10:28:20;;;;;;;29.15;13.32;;;26.80;26.70;;;;;;4944878;29;20256;-64
2021/05/09 10:30:53;;;;;;;31.85;16.80;;;27.00;26.00;;;;;;4944619;29;20032;-68
2021/05/09 10:33:37;;;;;;;183.38;95.18;;;27.10;26.00;;;;;;4945021;29;20374;-66
2021/05/09 10:36:06;;;;;;;82.68;41.50;;;27.10;26.40;;;;;;4946205;29;20211;-66
2021/05/09 10:39:10;;;;;;;28.95;15.35;;;27.10;25.00;;;;;;4944918;29;20102;-66
2021/05/09 10:41:37;;;;;;;65.20;32.15;;;27.10;24.20;;;;;;4945476;29;20039;-65
2021/05/09 10:44:37;;;;;;;9.45;5.00;;;27.10;25.40;;;;;;4927780;29;20039;-65
2021/05/09 10:47:04;;;;;;;5.32;2.58;;;27.20;24.60;;;;;;4944875;29;20252;-66
2021/05/09 10:49:30;;;;;;;5.40;2.45;;;27.20;24.20;;;;;;4927822;29;20040;-66
2021/05/09 10:51:55;;;;;;;15.93;8.85;;;27.20;23.30;;;;;;4927450;29;20067;-67
2021/05/09 10:54:22;;;;;;;4.60;1.05;;;27.30;23.80;;;;;;4944369;29;20040;-70
2021/05/09 10:56:49;;;;;;;2.25;1.10;;;27.30;21.60;;;;;;4929322;29;20144;-68
2021/05/09 10:59:14;;;;;;;6.75;1.63;;;27.30;22.20;;;;;;4928012;29;20063;-67
2021/05/09 11:01:40;;;;;;;5.43;2.10;;;27.40;23.10;;;;;;4914154;29;20039;-68
2021/05/09 11:04:12;;;;;;;3.50;1.20;;;27.50;24.20;;;;;;4931221;29;20071;-68
2021/05/09 11:06:45;;;;;;;3.40;1.10;;;27.50;24.30;;;;;;4915918;29;20028;-68
2021/05/09 11:09:12;;;;;;;1.80;0.75;;;27.60;25.60;;;;;;4949191;29;20031;-72
2021/05/09 11:11:37;;;;;;;1.30;0.65;;;27.70;24.80;;;;;;4948630;29;20040;-68
2021/05/09 11:14:10;;;;;;;2.45;0.80;;;27.70;25.40;;;;;;4948208;29;20063;-69
2021/05/09 11:16:43;;;;;;;2.85;0.60;;;27.80;24.50;;;;;;4930553;29;20103;-67
2021/05/09 11:19:16;;;;;;;1.67;0.60;;;27.80;24.40;;;;;;4947669;29;20215;-69
2021/05/09 11:21:54;;;;;;;0.70;0.40;;;27.70;24.10;;;;;;4930360;29;20039;-68
2021/05/09 11:24:24;;;;;;;1.77;0.60;;;27.80;23.90;;;;;;4947702;29;20038;-69
2021/05/09 11:27:09;;;;;;;3.27;0.70;;;27.80;23.30;;;;;;4949444;29;20043;-68
2021/05/09 11:29:38;;;;;;;1.15;0.60;;;27.80;22.30;;;;;;4931104;29;20062;-67
2021/05/09 11:32:08;;;;;;;1.23;0.60;;;27.80;22.50;;;;;;4947900;29;20040;-67
2021/05/09 11:34:34;;;;;;;1.63;0.60;;;27.90;23.80;;;;;;4947563;29;20046;-67
2021/05/09 11:36:59;;;;;;;2.38;0.50;;;27.80;23.90;;;;;;4947533;29;20035;-67
2021/05/09 11:39:33;;;;;;;1.48;0.60;;;27.80;22.40;;;;;;4930335;29;20038;-68
2021/05/09 11:41:59;;;;;;;4.00;0.70;;;27.80;22.30;;;;;;4949421;29;20035;-67
2021/05/09 11:44:26;;;;;;;3.88;0.60;;;27.80;22.30;;;;;;4947723;29;20242;-67
2021/05/09 11:46:52;;;;;;;0.82;0.45;;;27.90;22.00;;;;;;4947493;29;20040;-67
2021/05/09 11:49:22;;;;;;;3.25;0.60;;;28.00;22.50;;;;;;4947287;29;20386;-67
2021/05/09 11:51:54;;;;;;;1.00;0.50;;;28.00;22.60;;;;;;4947242;29;20046;-67
2021/05/09 11:54:24;;;;;;;2.25;0.60;;;28.00;22.10;;;;;;4947026;29;20027;-68
2021/05/09 11:56:53;;;;;;;2.53;0.47;;;28.10;22.50;;;;;;4948746;29;20036;-65
2021/05/09 11:59:31;;;;;;;2.15;0.55;;;28.10;21.50;;;;;;4947204;29;20239;-66
2021/05/09 12:01:57;;;;;;;1.23;0.50;;;28.10;21.20;;;;;;4947118;29;20223;-65
2021/05/09 12:04:28;;;;;;;2.80;0.70;;;28.10;22.40;;;;;;4929902;29;20136;-65
2021/05/09 12:07:01;;;;;;;1.90;0.40;;;28.20;22.60;;;;;;4947072;29;20028;-66
2021/05/09 12:09:27;;;;;;;2.03;0.50;;;28.20;22.50;;;;;;4946655;29;20022;-65
2021/05/09 12:11:52;;;;;;;1.17;0.60;;;28.30;22.30;;;;;;4931702;29;20347;-67
2021/05/09 12:14:18;;;;;;;1.50;0.50;;;28.30;22.10;;;;;;4930371;29;20050;-65
2021/05/09 12:16:44;;;;;;;1.02;0.45;;;28.30;22.10;;;;;;4929957;29;20091;-66
2021/05/09 12:19:10;;;;;;;0.98;0.52;;;28.30;24.40;;;;;;4946695;29;20226;-65
2021/05/09 12:21:35;;;;;;;0.70;0.40;;;28.40;22.80;;;;;;4946914;29;20063;-65
2021/05/09 12:24:04;;;;;;;0.47;0.38;;;28.50;23.60;;;;;;4948506;29;20039;-65
2021/05/09 12:26:30;;;;;;;0.90;0.50;;;28.60;23.70;;;;;;4947205;29;20059;-66
2021/05/09 12:29:18;;;;;;;2.17;0.50;;;28.60;22.40;;;;;;4947014;29;20040;-66
2021/05/09 12:31:43;;;;;;;1.13;0.60;;;28.70;21.20;;;;;;4946585;29;20036;-65
2021/05/09 12:34:10;;;;;;;1.73;0.40;;;28.70;21.50;;;;;;4946512;29;20224;-65
2021/05/09 12:36:35;;;;;;;0.90;0.40;;;28.70;22.50;;;;;;4946930;29;20036;-65
2021/05/09 12:39:03;;;;;;;2.13;0.50;;;28.60;21.00;;;;;;4948378;29;20184;-65
2021/05/09 12:41:28;;;;;;;1.27;0.55;;;28.70;22.20;;;;;;4930266;29;20051;-65
2021/05/09 12:43:55;;;;;;;0.85;0.50;;;28.70;21.80;;;;;;4946788;29;20071;-65